Wendover, UT (84083)

4:36 PM MDT on July 05, 2015 (GMT -0600)
Wendover | | Change Station
CLOSE
Current Station
Airport
Location: Wendover,
Elevation: 4239 ft
Nearby Weather Stations

Elev 4239 ft 40.72 °N, 114.03 °W | Updated 21 minutes ago

Mostly Cloudy
Mostly Cloudy
90 °F
Feels Like 90 °F
N
16
Wind Variable Wind from North
Gusts 24 mph

Today
High -- | Low -- °F
--% Chance of Precip.
Yesterday
High -- | Low -- °F
Precip. -- in
6:10 AM 9:10 PM
Waning Gibbous, 81% visible
Pressure 29.98 in
Visibility 10.0 miles
Clouds Mostly Cloudy 9000 ft
Mostly Cloudy 12000 ft
Dew Point 52 °F
Humidity 27%
Rainfall 0.00 in
Snow Depth Not available.
UV 5 out of 12
Pollen 1.30 out of 12
Air Quality Not available.
Flu Activity Not available.
METAR KENV 052215Z AUTO 35014G21KT 10SM BKN090 BKN120 32/11 A2998 RMK AO1 WSHFT 53

More Conditions Fewer Conditions

Pressure 29.98 in
Visibility 10.0 miles
Clouds Mostly Cloudy 9000 ft
Mostly Cloudy 12000 ft
Dew Point 52 °F
Humidity 27%
Rainfall 0.00 in
Snow Depth Not available.
UV 5 out of 12
Pollen 1.30 out of 12
Air Quality Not available.
Flu Activity Not available.
METAR KENV 052215Z AUTO 35014G21KT 10SM BKN090 BKN120 32/11 A2998 RMK AO1 WSHFT 53

More Conditions Fewer Conditions

Nowcast | as of 3:18 PM MDT on July 5, 2015

Showers and thunderstorms were scattered across southwest Wyoming and northern Utah this afternoon. The strongest thunderstorms at 315 PM were scattered between Randolph Utah and Evanston Wyoming. Other strong thunderstorms were in northwest Utah from near the Bonneville Salt Flats...north to near Park Valley. Expect locally heavy rain...cloud to ground lightning...gusty wind...and possibly small hail as the thunderstorms move east northeast. Expect water in normally dry washes with the locally heavy rain.

×

10-Day Weather Forecast

×

Almanac

Astronomy

Jul. 05, 2015 Rise Set
Actual Time
Civil Twilight
Nautical Twilight
Astronomical Twilight
Moon
Length of Visible Light
Length of Day
Tomorrow will be .
, % of the Moon is Illuminated

Today's Extremes

State Highs State Lows

Community

WunderPhotos

Upload Photos

1,835,414 photos uploaded!

WunderBlogs® & News

Nearby

Air Quality

  Air Quality AQ Index Pollutant
Not available.

Snow Depth

Station Depth Elevation

Earthquake Activity

City Distance Mag. Time & Date
Minimum magnitude displayed is 2.5.

Coastal Water Temperatures

Place Temperature

Stations

Nearby Weather Stations

Station Location Temp. Windchill Dew Point Humidity Wind Precip. Elev Updated Type